sensor_id;sensor_type;location;lat;lon;timestamp;P1;durP1;ratioP1;P2;durP2;ratioP2
63555;SDS011;49700;48.072;7.800;2024-01-06T00:02:08;3.50;;;2.63;;
63555;SDS011;49700;48.072;7.800;2024-01-06T00:04:33;3.40;;;2.60;;
63555;SDS011;49700;48.072;7.800;2024-01-06T00:06:59;3.57;;;2.30;;
63555;SDS011;49700;48.072;7.800;2024-01-06T00:09:24;3.75;;;2.80;;
63555;SDS011;49700;48.072;7.800;2024-01-06T00:11:50;7.10;;;3.10;;
63555;SDS011;49700;48.072;7.800;2024-01-06T00:14:15;4.67;;;2.30;;
63555;SDS011;49700;48.072;7.800;2024-01-06T00:16:41;3.30;;;2.23;;
63555;SDS011;49700;48.072;7.800;2024-01-06T00:19:06;2.87;;;2.47;;
63555;SDS011;49700;48.072;7.800;2024-01-06T00:21:32;9.23;;;3.40;;
63555;SDS011;49700;48.072;7.800;2024-01-06T00:23:58;4.80;;;3.00;;
63555;SDS011;49700;48.072;7.800;2024-01-06T00:26:23;5.33;;;2.87;;
63555;SDS011;49700;48.072;7.800;2024-01-06T00:28:52;3.67;;;2.92;;
63555;SDS011;49700;48.072;7.800;2024-01-06T00:31:17;3.10;;;2.27;;
63555;SDS011;49700;48.072;7.800;2024-01-06T00:33:43;4.37;;;2.20;;
63555;SDS011;49700;48.072;7.800;2024-01-06T00:36:09;3.80;;;2.37;;
63555;SDS011;49700;48.072;7.800;2024-01-06T00:38:34;4.13;;;2.70;;
63555;SDS011;49700;48.072;7.800;2024-01-06T00:41:00;3.53;;;2.67;;
63555;SDS011;49700;48.072;7.800;2024-01-06T00:43:26;2.10;;;2.00;;
63555;SDS011;49700;48.072;7.800;2024-01-06T00:45:54;4.70;;;2.20;;
63555;SDS011;49700;48.072;7.800;2024-01-06T00:48:20;6.00;;;3.30;;
63555;SDS011;49700;48.072;7.800;2024-01-06T00:50:45;3.70;;;2.50;;
63555;SDS011;49700;48.072;7.800;2024-01-06T00:53:11;3.30;;;2.80;;
63555;SDS011;49700;48.072;7.800;2024-01-06T00:55:37;4.88;;;2.83;;
63555;SDS011;49700;48.072;7.800;2024-01-06T00:58:02;5.07;;;3.20;;
63555;SDS011;49700;48.072;7.800;2024-01-06T01:00:28;3.63;;;3.07;;
63555;SDS011;49700;48.072;7.800;2024-01-06T01:02:54;4.27;;;2.60;;
63555;SDS011;49700;48.072;7.800;2024-01-06T01:05:22;2.72;;;2.53;;
63555;SDS011;49700;48.072;7.800;2024-01-06T01:07:47;4.20;;;3.40;;
63555;SDS011;49700;48.072;7.800;2024-01-06T01:10:13;4.03;;;3.17;;
63555;SDS011;49700;48.072;7.800;2024-01-06T01:12:38;5.03;;;4.00;;
63555;SDS011;49700;48.072;7.800;2024-01-06T01:15:04;3.43;;;2.80;;
63555;SDS011;49700;48.072;7.800;2024-01-06T01:17:30;4.17;;;2.93;;
63555;SDS011;49700;48.072;7.800;2024-01-06T01:19:55;4.00;;;3.60;;
63555;SDS011;49700;48.072;7.800;2024-01-06T01:22:21;6.40;;;2.53;;
63555;SDS011;49700;48.072;7.800;2024-01-06T01:24:46;3.90;;;3.30;;
63555;SDS011;49700;48.072;7.800;2024-01-06T01:27:12;3.57;;;2.53;;
63555;SDS011;49700;48.072;7.800;2024-01-06T01:29:37;2.70;;;2.50;;
63555;SDS011;49700;48.072;7.800;2024-01-06T01:32:03;6.73;;;2.70;;
63555;SDS011;49700;48.072;7.800;2024-01-06T01:34:29;6.38;;;2.40;;
63555;SDS011;49700;48.072;7.800;2024-01-06T01:36:54;4.30;;;3.33;;
63555;SDS011;49700;48.072;7.800;2024-01-06T01:39:20;3.40;;;2.27;;
63555;SDS011;49700;48.072;7.800;2024-01-06T01:41:45;2.80;;;2.27;;
63555;SDS011;49700;48.072;7.800;2024-01-06T01:44:11;3.67;;;2.83;;
63555;SDS011;49700;48.072;7.800;2024-01-06T01:46:37;6.13;;;3.40;;
63555;SDS011;49700;48.072;7.800;2024-01-06T01:49:03;4.40;;;2.67;;
63555;SDS011;49700;48.072;7.800;2024-01-06T01:51:31;8.18;;;3.03;;
63555;SDS011;49700;48.072;7.800;2024-01-06T01:53:59;4.10;;;2.65;;
63555;SDS011;49700;48.072;7.800;2024-01-06T01:56:26;2.95;;;2.25;;
63555;SDS011;49700;48.072;7.800;2024-01-06T01:58:52;4.77;;;3.53;;
63555;SDS011;49700;48.072;7.800;2024-01-06T02:01:18;3.25;;;2.28;;
63555;SDS011;49700;48.072;7.800;2024-01-06T02:03:44;4.60;;;2.33;;
63555;SDS011;49700;48.072;7.800;2024-01-06T02:08:54;2.60;;;2.20;;
63555;SDS011;49700;48.072;7.800;2024-01-06T02:11:20;3.30;;;2.97;;
63555;SDS011;49700;48.072;7.800;2024-01-06T02:13:45;3.80;;;2.80;;
63555;SDS011;49700;48.072;7.800;2024-01-06T02:16:11;3.20;;;2.23;;
63555;SDS011;49700;48.072;7.800;2024-01-06T02:18:36;1.77;;;1.63;;
63555;SDS011;49700;48.072;7.800;2024-01-06T02:21:02;2.73;;;2.40;;
63555;SDS011;49700;48.072;7.800;2024-01-06T02:23:28;4.80;;;2.03;;
63555;SDS011;49700;48.072;7.800;2024-01-06T02:25:54;7.20;;;2.25;;
63555;SDS011;49700;48.072;7.800;2024-01-06T02:28:20;8.80;;;3.30;;
63555;SDS011;49700;48.072;7.800;2024-01-06T02:30:45;2.07;;;1.87;;
63555;SDS011;49700;48.072;7.800;2024-01-06T02:33:11;2.67;;;2.13;;
63555;SDS011;49700;48.072;7.800;2024-01-06T02:35:36;2.57;;;2.37;;
63555;SDS011;49700;48.072;7.800;2024-01-06T02:38:02;3.57;;;2.60;;
63555;SDS011;49700;48.072;7.800;2024-01-06T02:40:27;3.73;;;2.50;;
63555;SDS011;49700;48.072;7.800;2024-01-06T02:42:53;7.90;;;3.20;;
63555;SDS011;49700;48.072;7.800;2024-01-06T02:45:18;5.50;;;1.83;;
63555;SDS011;49700;48.072;7.800;2024-01-06T02:47:44;3.30;;;2.53;;
63555;SDS011;49700;48.072;7.800;2024-01-06T02:50:09;3.20;;;2.10;;
63555;SDS011;49700;48.072;7.800;2024-01-06T02:52:34;2.83;;;2.30;;
63555;SDS011;49700;48.072;7.800;2024-01-06T02:55:00;4.60;;;2.53;;
63555;SDS011;49700;48.072;7.800;2024-01-06T02:57:26;3.63;;;2.90;;
63555;SDS011;49700;48.072;7.800;2024-01-06T02:59:53;2.15;;;1.95;;
63555;SDS011;49700;48.072;7.800;2024-01-06T03:02:18;3.20;;;2.13;;
63555;SDS011;49700;48.072;7.800;2024-01-06T03:04:43;2.93;;;2.27;;
63555;SDS011;49700;48.072;7.800;2024-01-06T03:07:09;3.73;;;3.03;;
63555;SDS011;49700;48.072;7.800;2024-01-06T03:09:35;5.30;;;3.10;;
63555;SDS011;49700;48.072;7.800;2024-01-06T03:12:00;3.33;;;2.27;;
63555;SDS011;49700;48.072;7.800;2024-01-06T03:14:26;5.83;;;3.80;;
63555;SDS011;49700;48.072;7.800;2024-01-06T03:16:51;7.07;;;3.37;;
63555;SDS011;49700;48.072;7.800;2024-01-06T03:19:17;5.63;;;2.90;;
63555;SDS011;49700;48.072;7.800;2024-01-06T03:21:42;4.00;;;3.33;;
63555;SDS011;49700;48.072;7.800;2024-01-06T03:24:07;3.60;;;3.07;;
63555;SDS011;49700;48.072;7.800;2024-01-06T03:26:34;6.45;;;2.95;;
63555;SDS011;49700;48.072;7.800;2024-01-06T03:28:59;4.83;;;3.50;;
63555;SDS011;49700;48.072;7.800;2024-01-06T03:31:27;4.55;;;3.10;;
63555;SDS011;49700;48.072;7.800;2024-01-06T03:33:52;5.13;;;2.97;;
63555;SDS011;49700;48.072;7.800;2024-01-06T03:36:19;3.70;;;2.78;;
63555;SDS011;49700;48.072;7.800;2024-01-06T03:38:44;5.73;;;4.20;;
63555;SDS011;49700;48.072;7.800;2024-01-06T03:41:10;2.50;;;2.30;;
63555;SDS011;49700;48.072;7.800;2024-01-06T03:43:35;4.00;;;2.43;;
63555;SDS011;49700;48.072;7.800;2024-01-06T03:46:01;4.23;;;2.83;;
63555;SDS011;49700;48.072;7.800;2024-01-06T03:48:26;4.13;;;3.03;;
63555;SDS011;49700;48.072;7.800;2024-01-06T03:50:52;4.23;;;2.90;;
63555;SDS011;49700;48.072;7.800;2024-01-06T03:53:17;4.77;;;2.20;;
63555;SDS011;49700;48.072;7.800;2024-01-06T03:55:43;6.70;;;2.90;;
63555;SDS011;49700;48.072;7.800;2024-01-06T03:58:08;3.97;;;2.40;;
63555;SDS011;49700;48.072;7.800;2024-01-06T04:00:34;5.80;;;2.90;;
63555;SDS011;49700;48.072;7.800;2024-01-06T04:02:59;5.20;;;3.10;;
63555;SDS011;49700;48.072;7.800;2024-01-06T04:05:24;2.87;;;2.50;;
63555;SDS011;49700;48.072;7.800;2024-01-06T04:07:50;7.67;;;3.17;;
63555;SDS011;49700;48.072;7.800;2024-01-06T04:10:15;2.97;;;2.67;;
63555;SDS011;49700;48.072;7.800;2024-01-06T04:12:40;9.53;;;3.70;;
63555;SDS011;49700;48.072;7.800;2024-01-06T04:15:06;3.00;;;2.80;;
63555;SDS011;49700;48.072;7.800;2024-01-06T04:17:31;5.23;;;2.67;;
63555;SDS011;49700;48.072;7.800;2024-01-06T04:19:57;2.70;;;2.37;;
63555;SDS011;49700;48.072;7.800;2024-01-06T04:22:22;2.90;;;2.60;;
63555;SDS011;49700;48.072;7.800;2024-01-06T04:24:49;4.97;;;2.63;;
63555;SDS011;49700;48.072;7.800;2024-01-06T04:27:14;5.23;;;2.90;;
63555;SDS011;49700;48.072;7.800;2024-01-06T04:29:42;3.57;;;2.63;;
63555;SDS011;49700;48.072;7.800;2024-01-06T04:32:08;4.90;;;2.40;;
63555;SDS011;49700;48.072;7.800;2024-01-06T04:34:33;4.70;;;2.70;;
63555;SDS011;49700;48.072;7.800;2024-01-06T04:36:59;3.63;;;2.70;;
63555;SDS011;49700;48.072;7.800;2024-01-06T04:39:24;3.43;;;2.90;;
63555;SDS011;49700;48.072;7.800;2024-01-06T04:41:49;3.17;;;2.40;;
63555;SDS011;49700;48.072;7.800;2024-01-06T04:44:19;4.57;;;2.23;;
63555;SDS011;49700;48.072;7.800;2024-01-06T04:46:46;3.22;;;2.55;;
63555;SDS011;49700;48.072;7.800;2024-01-06T04:49:11;6.20;;;3.90;;
63555;SDS011;49700;48.072;7.800;2024-01-06T04:51:37;2.73;;;2.50;;
63555;SDS011;49700;48.072;7.800;2024-01-06T04:54:02;3.20;;;2.70;;
63555;SDS011;49700;48.072;7.800;2024-01-06T04:56:28;4.17;;;3.00;;
63555;SDS011;49700;48.072;7.800;2024-01-06T04:58:53;3.80;;;2.47;;
63555;SDS011;49700;48.072;7.800;2024-01-06T05:01:18;3.73;;;2.63;;
63555;SDS011;49700;48.072;7.800;2024-01-06T05:03:44;4.60;;;3.33;;
63555;SDS011;49700;48.072;7.800;2024-01-06T05:06:09;6.80;;;3.20;;
63555;SDS011;49700;48.072;7.800;2024-01-06T05:08:35;4.78;;;3.50;;
63555;SDS011;49700;48.072;7.800;2024-01-06T05:11:04;3.92;;;3.20;;
63555;SDS011;49700;48.072;7.800;2024-01-06T05:13:30;3.40;;;3.10;;
63555;SDS011;49700;48.072;7.800;2024-01-06T05:15:55;3.20;;;2.60;;
63555;SDS011;49700;48.072;7.800;2024-01-06T05:18:21;3.47;;;3.10;;
63555;SDS011;49700;48.072;7.800;2024-01-06T05:20:46;4.00;;;3.13;;
63555;SDS011;49700;48.072;7.800;2024-01-06T05:23:12;2.63;;;2.42;;
63555;SDS011;49700;48.072;7.800;2024-01-06T05:25:37;7.97;;;3.73;;
63555;SDS011;49700;48.072;7.800;2024-01-06T05:28:03;5.03;;;3.83;;
63555;SDS011;49700;48.072;7.800;2024-01-06T05:30:29;6.83;;;3.07;;
63555;SDS011;49700;48.072;7.800;2024-01-06T05:32:54;2.87;;;2.63;;
63555;SDS011;49700;48.072;7.800;2024-01-06T05:35:22;3.73;;;3.03;;
63555;SDS011;49700;48.072;7.800;2024-01-06T05:37:48;5.10;;;3.05;;
63555;SDS011;49700;48.072;7.800;2024-01-06T05:40:13;2.93;;;2.73;;
63555;SDS011;49700;48.072;7.800;2024-01-06T05:42:39;3.92;;;2.65;;
63555;SDS011;49700;48.072;7.800;2024-01-06T05:45:05;6.93;;;3.30;;
63555;SDS011;49700;48.072;7.800;2024-01-06T05:47:30;3.27;;;2.97;;
63555;SDS011;49700;48.072;7.800;2024-01-06T05:49:56;2.53;;;2.23;;
63555;SDS011;49700;48.072;7.800;2024-01-06T05:52:22;3.55;;;2.72;;
63555;SDS011;49700;48.072;7.800;2024-01-06T05:54:48;4.00;;;2.65;;
63555;SDS011;49700;48.072;7.800;2024-01-06T05:57:14;3.40;;;2.90;;
63555;SDS011;49700;48.072;7.800;2024-01-06T05:59:39;3.73;;;2.97;;
63555;SDS011;49700;48.072;7.800;2024-01-06T06:02:05;4.43;;;3.47;;
63555;SDS011;49700;48.072;7.800;2024-01-06T06:04:31;3.77;;;3.13;;
63555;SDS011;49700;48.072;7.800;2024-01-06T06:06:56;5.40;;;3.17;;
63555;SDS011;49700;48.072;7.800;2024-01-06T06:09:21;5.90;;;4.20;;
63555;SDS011;49700;48.072;7.800;2024-01-06T06:11:47;5.63;;;3.70;;
63555;SDS011;49700;48.072;7.800;2024-01-06T06:14:13;3.00;;;2.67;;
63555;SDS011;49700;48.072;7.800;2024-01-06T06:16:39;2.80;;;2.60;;
63555;SDS011;49700;48.072;7.800;2024-01-06T06:19:04;4.77;;;3.60;;
63555;SDS011;49700;48.072;7.800;2024-01-06T06:21:30;6.00;;;3.77;;
63555;SDS011;49700;48.072;7.800;2024-01-06T06:23:55;4.47;;;3.13;;
63555;SDS011;49700;48.072;7.800;2024-01-06T06:26:20;3.90;;;2.97;;
63555;SDS011;49700;48.072;7.800;2024-01-06T06:28:46;6.93;;;3.43;;
63555;SDS011;49700;48.072;7.800;2024-01-06T06:31:11;3.70;;;2.63;;
63555;SDS011;49700;48.072;7.800;2024-01-06T06:33:36;4.63;;;3.40;;
63555;SDS011;49700;48.072;7.800;2024-01-06T06:36:02;4.80;;;3.60;;
63555;SDS011;49700;48.072;7.800;2024-01-06T06:38:28;6.50;;;4.82;;
63555;SDS011;49700;48.072;7.800;2024-01-06T06:40:54;7.93;;;4.60;;
63555;SDS011;49700;48.072;7.800;2024-01-06T06:43:20;6.37;;;4.80;;
63555;SDS011;49700;48.072;7.800;2024-01-06T06:45:45;5.87;;;4.00;;
63555;SDS011;49700;48.072;7.800;2024-01-06T06:48:10;11.67;;;6.20;;
63555;SDS011;49700;48.072;7.800;2024-01-06T06:50:36;5.47;;;3.93;;
63555;SDS011;49700;48.072;7.800;2024-01-06T06:53:01;4.03;;;3.60;;
63555;SDS011;49700;48.072;7.800;2024-01-06T06:55:27;4.23;;;3.50;;
63555;SDS011;49700;48.072;7.800;2024-01-06T06:57:53;3.97;;;3.67;;
63555;SDS011;49700;48.072;7.800;2024-01-06T07:00:19;5.63;;;3.10;;
63555;SDS011;49700;48.072;7.800;2024-01-06T07:02:44;7.40;;;4.60;;
63555;SDS011;49700;48.072;7.800;2024-01-06T07:05:10;5.30;;;3.70;;
63555;SDS011;49700;48.072;7.800;2024-01-06T07:07:36;8.03;;;4.40;;
63555;SDS011;49700;48.072;7.800;2024-01-06T07:10:03;5.50;;;3.85;;
63555;SDS011;49700;48.072;7.800;2024-01-06T07:12:30;4.40;;;3.80;;
63555;SDS011;49700;48.072;7.800;2024-01-06T07:14:56;10.60;;;3.87;;
63555;SDS011;49700;48.072;7.800;2024-01-06T07:17:22;5.75;;;3.42;;
63555;SDS011;49700;48.072;7.800;2024-01-06T07:19:47;5.20;;;3.33;;
63555;SDS011;49700;48.072;7.800;2024-01-06T07:22:13;4.43;;;3.30;;
63555;SDS011;49700;48.072;7.800;2024-01-06T07:24:40;3.70;;;3.03;;
63555;SDS011;49700;48.072;7.800;2024-01-06T07:27:05;3.73;;;3.10;;
63555;SDS011;49700;48.072;7.800;2024-01-06T07:29:31;6.77;;;3.33;;
63555;SDS011;49700;48.072;7.800;2024-01-06T07:31:56;4.67;;;3.40;;
63555;SDS011;49700;48.072;7.800;2024-01-06T07:34:22;4.07;;;2.80;;
63555;SDS011;49700;48.072;7.800;2024-01-06T07:36:47;6.17;;;3.10;;
63555;SDS011;49700;48.072;7.800;2024-01-06T07:39:12;4.90;;;4.10;;
63555;SDS011;49700;48.072;7.800;2024-01-06T07:41:38;4.67;;;2.90;;
63555;SDS011;49700;48.072;7.800;2024-01-06T07:44:03;3.30;;;3.00;;
63555;SDS011;49700;48.072;7.800;2024-01-06T07:46:29;4.43;;;2.75;;
63555;SDS011;49700;48.072;7.800;2024-01-06T07:48:56;4.38;;;3.17;;
63555;SDS011;49700;48.072;7.800;2024-01-06T07:51:21;4.17;;;3.80;;
63555;SDS011;49700;48.072;7.800;2024-01-06T07:53:47;4.03;;;2.50;;
63555;SDS011;49700;48.072;7.800;2024-01-06T07:56:12;3.50;;;3.07;;
63555;SDS011;49700;48.072;7.800;2024-01-06T07:58:38;10.70;;;6.80;;
63555;SDS011;49700;48.072;7.800;2024-01-06T08:01:03;6.00;;;5.40;;
63555;SDS011;49700;48.072;7.800;2024-01-06T08:03:29;8.37;;;5.37;;
63555;SDS011;49700;48.072;7.800;2024-01-06T08:05:54;4.10;;;3.80;;
63555;SDS011;49700;48.072;7.800;2024-01-06T08:08:19;5.57;;;4.37;;
63555;SDS011;49700;48.072;7.800;2024-01-06T08:10:45;5.23;;;3.63;;
63555;SDS011;49700;48.072;7.800;2024-01-06T08:13:11;5.35;;;3.40;;
63555;SDS011;49700;48.072;7.800;2024-01-06T08:15:36;5.07;;;4.57;;
63555;SDS011;49700;48.072;7.800;2024-01-06T08:18:02;11.47;;;6.53;;
63555;SDS011;49700;48.072;7.800;2024-01-06T08:20:28;8.67;;;6.47;;
63555;SDS011;49700;48.072;7.800;2024-01-06T08:22:54;8.70;;;6.15;;
63555;SDS011;49700;48.072;7.800;2024-01-06T08:25:21;8.25;;;5.15;;
63555;SDS011;49700;48.072;7.800;2024-01-06T08:27:46;10.53;;;4.70;;
63555;SDS011;49700;48.072;7.800;2024-01-06T08:30:11;6.73;;;5.40;;
63555;SDS011;49700;48.072;7.800;2024-01-06T08:32:37;8.90;;;5.00;;
63555;SDS011;49700;48.072;7.800;2024-01-06T08:35:03;6.80;;;3.73;;
63555;SDS011;49700;48.072;7.800;2024-01-06T08:37:29;8.82;;;4.40;;
63555;SDS011;49700;48.072;7.800;2024-01-06T08:39:55;4.95;;;4.20;;
63555;SDS011;49700;48.072;7.800;2024-01-06T08:42:20;5.20;;;4.50;;
63555;SDS011;49700;48.072;7.800;2024-01-06T08:44:49;5.50;;;4.68;;
63555;SDS011;49700;48.072;7.800;2024-01-06T08:47:14;7.93;;;5.10;;
63555;SDS011;49700;48.072;7.800;2024-01-06T08:49:40;7.00;;;5.50;;
63555;SDS011;49700;48.072;7.800;2024-01-06T08:52:05;6.93;;;4.33;;
63555;SDS011;49700;48.072;7.800;2024-01-06T08:54:31;7.10;;;4.67;;
63555;SDS011;49700;48.072;7.800;2024-01-06T08:56:57;5.28;;;4.72;;
63555;SDS011;49700;48.072;7.800;2024-01-06T08:59:23;5.60;;;4.37;;
63555;SDS011;49700;48.072;7.800;2024-01-06T09:01:48;4.67;;;4.27;;
63555;SDS011;49700;48.072;7.800;2024-01-06T09:04:14;8.97;;;5.27;;
63555;SDS011;49700;48.072;7.800;2024-01-06T09:06:40;5.80;;;4.77;;
63555;SDS011;49700;48.072;7.800;2024-01-06T09:09:07;11.13;;;5.95;;
63555;SDS011;49700;48.072;7.800;2024-01-06T09:11:33;6.65;;;4.82;;
63555;SDS011;49700;48.072;7.800;2024-01-06T09:13:58;5.90;;;4.87;;
63555;SDS011;49700;48.072;7.800;2024-01-06T09:16:24;5.10;;;3.90;;
63555;SDS011;49700;48.072;7.800;2024-01-06T09:18:49;5.43;;;4.30;;
63555;SDS011;49700;48.072;7.800;2024-01-06T09:21:15;6.07;;;3.60;;
63555;SDS011;49700;48.072;7.800;2024-01-06T09:23:40;7.23;;;4.40;;
63555;SDS011;49700;48.072;7.800;2024-01-06T09:26:06;6.80;;;5.03;;
63555;SDS011;49700;48.072;7.800;2024-01-06T09:28:31;5.40;;;4.50;;
63555;SDS011;49700;48.072;7.800;2024-01-06T09:30:57;5.30;;;4.37;;
63555;SDS011;49700;48.072;7.800;2024-01-06T09:33:22;8.60;;;4.43;;
63555;SDS011;49700;48.072;7.800;2024-01-06T09:35:48;9.60;;;7.10;;
63555;SDS011;49700;48.072;7.800;2024-01-06T09:38:13;8.20;;;6.30;;
63555;SDS011;49700;48.072;7.800;2024-01-06T09:40:41;4.40;;;4.00;;
63555;SDS011;49700;48.072;7.800;2024-01-06T09:43:11;6.53;;;3.90;;
63555;SDS011;49700;48.072;7.800;2024-01-06T09:45:37;5.00;;;3.60;;
63555;SDS011;49700;48.072;7.800;2024-01-06T09:48:13;11.00;;;4.00;;
63555;SDS011;49700;48.072;7.800;2024-01-06T09:50:43;6.18;;;4.18;;
63555;SDS011;49700;48.072;7.800;2024-01-06T09:53:13;4.70;;;2.58;;
63555;SDS011;49700;48.072;7.800;2024-01-06T09:55:39;4.13;;;3.55;;
63555;SDS011;49700;48.072;7.800;2024-01-06T09:58:04;4.60;;;3.07;;
63555;SDS011;49700;48.072;7.800;2024-01-06T10:00:31;2.67;;;2.45;;
63555;SDS011;49700;48.072;7.800;2024-01-06T10:02:57;2.93;;;2.70;;
63555;SDS011;49700;48.072;7.800;2024-01-06T10:05:23;1.90;;;1.80;;
63555;SDS011;49700;48.072;7.800;2024-01-06T10:07:48;3.67;;;3.17;;
63555;SDS011;49700;48.072;7.800;2024-01-06T10:10:14;3.90;;;3.30;;
63555;SDS011;49700;48.072;7.800;2024-01-06T10:12:41;4.57;;;3.60;;
63555;SDS011;49700;48.072;7.800;2024-01-06T10:15:08;2.30;;;1.90;;
63555;SDS011;49700;48.072;7.800;2024-01-06T10:17:38;4.53;;;2.60;;
63555;SDS011;49700;48.072;7.800;2024-01-06T10:20:08;2.60;;;1.90;;
63555;SDS011;49700;48.072;7.800;2024-01-06T10:22:35;3.17;;;2.22;;
63555;SDS011;49700;48.072;7.800;2024-01-06T10:25:02;2.33;;;1.65;;
63555;SDS011;49700;48.072;7.800;2024-01-06T10:27:27;2.23;;;1.60;;
63555;SDS011;49700;48.072;7.800;2024-01-06T10:29:53;3.60;;;1.90;;
63555;SDS011;49700;48.072;7.800;2024-01-06T10:32:18;2.70;;;1.40;;
63555;SDS011;49700;48.072;7.800;2024-01-06T10:34:44;3.20;;;2.13;;
63555;SDS011;49700;48.072;7.800;2024-01-06T10:37:10;2.17;;;1.70;;
63555;SDS011;49700;48.072;7.800;2024-01-06T10:39:36;3.20;;;2.13;;
63555;SDS011;49700;48.072;7.800;2024-01-06T10:42:01;2.57;;;1.53;;
63555;SDS011;49700;48.072;7.800;2024-01-06T10:44:29;3.13;;;1.50;;
63555;SDS011;49700;48.072;7.800;2024-01-06T10:46:57;3.47;;;2.40;;
63555;SDS011;49700;48.072;7.800;2024-01-06T10:49:24;3.72;;;1.98;;
63555;SDS011;49700;48.072;7.800;2024-01-06T10:51:51;3.95;;;1.73;;
63555;SDS011;49700;48.072;7.800;2024-01-06T10:54:18;2.10;;;1.70;;
63555;SDS011;49700;48.072;7.800;2024-01-06T10:56:45;1.80;;;1.40;;
63555;SDS011;49700;48.072;7.800;2024-01-06T10:59:12;2.58;;;2.38;;
63555;SDS011;49700;48.072;7.800;2024-01-06T11:01:39;2.08;;;1.63;;
63555;SDS011;49700;48.072;7.800;2024-01-06T11:04:06;5.07;;;2.17;;
63555;SDS011;49700;48.072;7.800;2024-01-06T11:06:32;4.00;;;3.40;;
63555;SDS011;49700;48.072;7.800;2024-01-06T11:09:04;2.50;;;2.30;;
63555;SDS011;49700;48.072;7.800;2024-01-06T11:11:35;4.13;;;2.47;;
63555;SDS011;49700;48.072;7.800;2024-01-06T11:16:47;2.50;;;2.08;;
63555;SDS011;49700;48.072;7.800;2024-01-06T11:22:18;2.35;;;1.80;;
63555;SDS011;49700;48.072;7.800;2024-01-06T11:24:52;3.38;;;3.08;;
63555;SDS011;49700;48.072;7.800;2024-01-06T11:27:23;1.98;;;1.70;;
63555;SDS011;49700;48.072;7.800;2024-01-06T11:29:53;2.95;;;2.10;;
63555;SDS011;49700;48.072;7.800;2024-01-06T11:32:20;4.25;;;2.20;;
63555;SDS011;49700;48.072;7.800;2024-01-06T11:34:49;2.10;;;2.00;;
63555;SDS011;49700;48.072;7.800;2024-01-06T11:37:19;4.40;;;2.95;;
63555;SDS011;49700;48.072;7.800;2024-01-06T11:39:48;3.47;;;2.42;;
63555;SDS011;49700;48.072;7.800;2024-01-06T11:42:15;3.83;;;2.55;;
63555;SDS011;49700;48.072;7.800;2024-01-06T11:44:44;2.90;;;2.57;;
63555;SDS011;49700;48.072;7.800;2024-01-06T11:47:13;3.45;;;2.95;;
63555;SDS011;49700;48.072;7.800;2024-01-06T11:49:38;3.97;;;2.50;;
63555;SDS011;49700;48.072;7.800;2024-01-06T11:52:03;2.27;;;2.07;;
63555;SDS011;49700;48.072;7.800;2024-01-06T11:54:30;6.40;;;2.10;;
63555;SDS011;49700;48.072;7.800;2024-01-06T11:56:56;5.20;;;2.80;;
63555;SDS011;49700;48.072;7.800;2024-01-06T11:59:22;2.90;;;2.70;;
63555;SDS011;49700;48.072;7.800;2024-01-06T12:01:48;3.50;;;2.67;;
63555;SDS011;49700;48.072;7.800;2024-01-06T12:04:14;2.60;;;2.40;;
63555;SDS011;49700;48.072;7.800;2024-01-06T12:06:43;2.25;;;1.92;;
63555;SDS011;49700;48.072;7.800;2024-01-06T12:09:11;3.90;;;2.43;;
63555;SDS011;49700;48.072;7.800;2024-01-06T12:11:41;2.95;;;2.13;;
63555;SDS011;49700;48.072;7.800;2024-01-06T12:14:07;3.38;;;2.25;;
63555;SDS011;49700;48.072;7.800;2024-01-06T12:16:32;3.37;;;2.00;;
63555;SDS011;49700;48.072;7.800;2024-01-06T12:18:58;2.30;;;2.10;;
63555;SDS011;49700;48.072;7.800;2024-01-06T12:21:29;2.05;;;1.45;;
63555;SDS011;49700;48.072;7.800;2024-01-06T12:24:17;3.15;;;2.25;;
63555;SDS011;49700;48.072;7.800;2024-01-06T12:26:46;4.28;;;3.22;;
63555;SDS011;49700;48.072;7.800;2024-01-06T12:29:14;3.67;;;2.93;;
63555;SDS011;49700;48.072;7.800;2024-01-06T12:31:44;5.25;;;2.55;;
63555;SDS011;49700;48.072;7.800;2024-01-06T12:34:12;3.80;;;2.20;;
63555;SDS011;49700;48.072;7.800;2024-01-06T12:36:39;1.40;;;1.30;;
63555;SDS011;49700;48.072;7.800;2024-01-06T12:39:06;1.23;;;1.13;;
63555;SDS011;49700;48.072;7.800;2024-01-06T12:41:38;1.17;;;1.00;;
63555;SDS011;49700;48.072;7.800;2024-01-06T12:44:08;1.35;;;1.25;;
63555;SDS011;49700;48.072;7.800;2024-01-06T12:46:34;2.63;;;2.38;;
63555;SDS011;49700;48.072;7.800;2024-01-06T12:49:01;2.20;;;2.00;;
63555;SDS011;49700;48.072;7.800;2024-01-06T12:51:27;2.60;;;1.50;;
63555;SDS011;49700;48.072;7.800;2024-01-06T12:53:56;3.60;;;1.23;;
63555;SDS011;49700;48.072;7.800;2024-01-06T12:56:25;2.65;;;1.50;;
63555;SDS011;49700;48.072;7.800;2024-01-06T12:58:50;1.35;;;1.10;;
63555;SDS011;49700;48.072;7.800;2024-01-06T13:01:16;1.30;;;1.20;;
63555;SDS011;49700;48.072;7.800;2024-01-06T13:03:42;2.93;;;1.60;;
63555;SDS011;49700;48.072;7.800;2024-01-06T13:06:08;1.20;;;1.10;;
63555;SDS011;49700;48.072;7.800;2024-01-06T13:08:34;2.03;;;1.60;;
63555;SDS011;49700;48.072;7.800;2024-01-06T13:11:00;2.30;;;1.70;;
63555;SDS011;49700;48.072;7.800;2024-01-06T13:13:28;3.63;;;2.13;;
63555;SDS011;49700;48.072;7.800;2024-01-06T13:15:57;3.30;;;2.85;;
63555;SDS011;49700;48.072;7.800;2024-01-06T13:18:23;2.37;;;1.90;;
63555;SDS011;49700;48.072;7.800;2024-01-06T13:20:48;1.30;;;1.20;;
63555;SDS011;49700;48.072;7.800;2024-01-06T13:23:15;1.30;;;1.17;;
63555;SDS011;49700;48.072;7.800;2024-01-06T13:25:41;1.75;;;1.20;;
63555;SDS011;49700;48.072;7.800;2024-01-06T13:28:06;1.20;;;1.10;;
63555;SDS011;49700;48.072;7.800;2024-01-06T13:30:39;2.75;;;1.50;;
63555;SDS011;49700;48.072;7.800;2024-01-06T13:33:07;9.02;;;5.97;;
63555;SDS011;49700;48.072;7.800;2024-01-06T13:35:41;2.25;;;1.35;;
63555;SDS011;49700;48.072;7.800;2024-01-06T13:38:09;3.10;;;1.70;;
63555;SDS011;49700;48.072;7.800;2024-01-06T13:40:35;1.70;;;1.30;;
63555;SDS011;49700;48.072;7.800;2024-01-06T13:43:01;2.33;;;1.80;;
63555;SDS011;49700;48.072;7.800;2024-01-06T13:45:29;1.25;;;1.15;;
63555;SDS011;49700;48.072;7.800;2024-01-06T13:47:55;2.27;;;1.30;;
63555;SDS011;49700;48.072;7.800;2024-01-06T13:50:20;1.20;;;1.10;;
63555;SDS011;49700;48.072;7.800;2024-01-06T13:52:46;1.00;;;0.90;;
63555;SDS011;49700;48.072;7.800;2024-01-06T13:55:11;1.60;;;1.20;;
63555;SDS011;49700;48.072;7.800;2024-01-06T13:57:37;1.30;;;1.00;;
63555;SDS011;49700;48.072;7.800;2024-01-06T14:00:09;1.95;;;1.38;;
63555;SDS011;49700;48.072;7.800;2024-01-06T14:02:37;1.40;;;1.27;;
63555;SDS011;49700;48.072;7.800;2024-01-06T14:05:03;1.42;;;1.00;;
63555;SDS011;49700;48.072;7.800;2024-01-06T14:07:30;1.63;;;1.23;;
63555;SDS011;49700;48.072;7.800;2024-01-06T14:09:55;1.60;;;1.50;;
63555;SDS011;49700;48.072;7.800;2024-01-06T14:12:20;1.40;;;1.03;;
63555;SDS011;49700;48.072;7.800;2024-01-06T14:14:46;3.53;;;1.67;;
63555;SDS011;49700;48.072;7.800;2024-01-06T14:17:11;1.53;;;1.40;;
63555;SDS011;49700;48.072;7.800;2024-01-06T14:19:37;2.97;;;1.80;;
63555;SDS011;49700;48.072;7.800;2024-01-06T14:22:02;1.87;;;1.67;;
63555;SDS011;49700;48.072;7.800;2024-01-06T14:24:30;2.63;;;2.05;;
63555;SDS011;49700;48.072;7.800;2024-01-06T14:26:56;1.97;;;1.70;;
63555;SDS011;49700;48.072;7.800;2024-01-06T14:29:22;3.50;;;2.13;;
63555;SDS011;49700;48.072;7.800;2024-01-06T14:31:47;3.87;;;1.67;;
63555;SDS011;49700;48.072;7.800;2024-01-06T14:34:13;2.23;;;2.03;;
63555;SDS011;49700;48.072;7.800;2024-01-06T14:36:39;2.73;;;2.23;;
63555;SDS011;49700;48.072;7.800;2024-01-06T14:39:05;2.58;;;2.10;;
63555;SDS011;49700;48.072;7.800;2024-01-06T14:41:32;3.25;;;1.45;;
63555;SDS011;49700;48.072;7.800;2024-01-06T14:43:58;3.55;;;2.13;;
63555;SDS011;49700;48.072;7.800;2024-01-06T14:46:23;1.63;;;1.37;;
63555;SDS011;49700;48.072;7.800;2024-01-06T14:48:49;1.73;;;1.63;;
63555;SDS011;49700;48.072;7.800;2024-01-06T14:51:14;3.00;;;1.80;;